<?xml version="1.0" encoding="utf-8"?>
<gpx xmlns:xsi="http://www.w3.org/2001/XMLSchema-instance" xmlns:xsd="http://www.w3.org/2001/XMLSchema" version="1.1" creator="Shapelink.com" xmlns="http://www.topografix.com/GPX/1/1" xmlns:gpxtpx="http://www.garmin.com/xmlschemas/TrackPointExtension/v1">
  <metadata>
    <name>Løping 5.11 km, 2012-09-10</name>
    <desc></desc>
    <author><name>Mikael Blom</name></author> 
    <time>2012-09-10T18:29:01Z</time>
  </metadata>
  <trk>
    <name>Løping 5.11 km, 2012-09-10</name>
    <trkseg>
      <trkpt lat="59.979019" lon="17.7391977">
        <ele>36.1868</ele>
        <time>2012-09-10T18:29:01Z</time>
      </trkpt>
      <trkpt lat="59.9791158" lon="17.7391317">
        <ele>36.6675</ele>
        <time>2012-09-10T18:29:05Z</time>
      </trkpt>
      <trkpt lat="59.9792189" lon="17.7390938">
        <ele>35.7061</ele>
        <time>2012-09-10T18:29:09Z</time>
      </trkpt>
      <trkpt lat="59.9793713" lon="17.7390265">
        <ele>36.6675</ele>
        <time>2012-09-10T18:29:14Z</time>
      </trkpt>
      <trkpt lat="59.9794643" lon="17.7389609">
        <ele>36.6675</ele>
        <time>2012-09-10T18:29:18Z</time>
      </trkpt>
      <trkpt lat="59.9795075" lon="17.7389264">
        <ele>37.1481</ele>
        <time>2012-09-10T18:29:20Z</time>
      </trkpt>
      <trkpt lat="59.9795961" lon="17.738884">
        <ele>35.2255</ele>
        <time>2012-09-10T18:29:25Z</time>
      </trkpt>
      <trkpt lat="59.9796694" lon="17.7388449">
        <ele>33.7834</ele>
        <time>2012-09-10T18:29:28Z</time>
      </trkpt>
      <trkpt lat="59.9798466" lon="17.7388022">
        <ele>38.1094</ele>
        <time>2012-09-10T18:29:34Z</time>
      </trkpt>
      <trkpt lat="59.9800299" lon="17.7387684">
        <ele>39.0707</ele>
        <time>2012-09-10T18:29:39Z</time>
      </trkpt>
      <trkpt lat="59.9801679" lon="17.7387766">
        <ele>40.5128</ele>
        <time>2012-09-10T18:29:44Z</time>
      </trkpt>
      <trkpt lat="59.980218" lon="17.7387953">
        <ele>40.9934</ele>
        <time>2012-09-10T18:29:46Z</time>
      </trkpt>
      <trkpt lat="59.9803661" lon="17.7387335">
        <ele>42.4354</ele>
        <time>2012-09-10T18:29:52Z</time>
      </trkpt>
      <trkpt lat="59.9804746" lon="17.7387344">
        <ele>42.916</ele>
        <time>2012-09-10T18:29:56Z</time>
      </trkpt>
      <trkpt lat="59.9805461" lon="17.7386989">
        <ele>42.4354</ele>
        <time>2012-09-10T18:29:59Z</time>
      </trkpt>
      <trkpt lat="59.9807101" lon="17.7386616">
        <ele>43.3966</ele>
        <time>2012-09-10T18:30:05Z</time>
      </trkpt>
      <trkpt lat="59.9808268" lon="17.7386237">
        <ele>43.8773</ele>
        <time>2012-09-10T18:30:10Z</time>
      </trkpt>
      <trkpt lat="59.9809712" lon="17.7385541">
        <ele>45.3192</ele>
        <time>2012-09-10T18:30:16Z</time>
      </trkpt>
      <trkpt lat="59.9810905" lon="17.7385166">
        <ele>46.7612</ele>
        <time>2012-09-10T18:30:21Z</time>
      </trkpt>
      <trkpt lat="59.9812032" lon="17.7384849">
        <ele>48.2034</ele>
        <time>2012-09-10T18:30:26Z</time>
      </trkpt>
      <trkpt lat="59.9813381" lon="17.7384341">
        <ele>49.6453</ele>
        <time>2012-09-10T18:30:32Z</time>
      </trkpt>
      <trkpt lat="59.9814618" lon="17.7383887">
        <ele>51.0872</ele>
        <time>2012-09-10T18:30:37Z</time>
      </trkpt>
      <trkpt lat="59.9816311" lon="17.7383516">
        <ele>51.5679</ele>
        <time>2012-09-10T18:30:44Z</time>
      </trkpt>
      <trkpt lat="59.9817692" lon="17.7382769">
        <ele>52.5292</ele>
        <time>2012-09-10T18:30:50Z</time>
      </trkpt>
      <trkpt lat="59.981893" lon="17.7382468">
        <ele>53.9712</ele>
        <time>2012-09-10T18:30:55Z</time>
      </trkpt>
      <trkpt lat="59.9820315" lon="17.7382052">
        <ele>53.4905</ele>
        <time>2012-09-10T18:31:01Z</time>
      </trkpt>
      <trkpt lat="59.9821234" lon="17.7381655">
        <ele>50.126</ele>
        <time>2012-09-10T18:31:06Z</time>
      </trkpt>
      <trkpt lat="59.9822379" lon="17.7381197">
        <ele>48.684</ele>
        <time>2012-09-10T18:31:11Z</time>
      </trkpt>
      <trkpt lat="59.9823731" lon="17.7380655">
        <ele>49.1646</ele>
        <time>2012-09-10T18:31:16Z</time>
      </trkpt>
      <trkpt lat="59.9825093" lon="17.738057">
        <ele>50.6066</ele>
        <time>2012-09-10T18:31:21Z</time>
      </trkpt>
      <trkpt lat="59.9826488" lon="17.7380612">
        <ele>49.1646</ele>
        <time>2012-09-10T18:31:26Z</time>
      </trkpt>
      <trkpt lat="59.9827836" lon="17.738086">
        <ele>48.684</ele>
        <time>2012-09-10T18:31:31Z</time>
      </trkpt>
      <trkpt lat="59.9829066" lon="17.7381119">
        <ele>48.2034</ele>
        <time>2012-09-10T18:31:36Z</time>
      </trkpt>
      <trkpt lat="59.9830673" lon="17.7380913">
        <ele>49.6453</ele>
        <time>2012-09-10T18:31:42Z</time>
      </trkpt>
      <trkpt lat="59.983169" lon="17.7380723">
        <ele>47.7225</ele>
        <time>2012-09-10T18:31:46Z</time>
      </trkpt>
      <trkpt lat="59.9833134" lon="17.7380303">
        <ele>48.2034</ele>
        <time>2012-09-10T18:31:51Z</time>
      </trkpt>
      <trkpt lat="59.9834189" lon="17.7380069">
        <ele>50.126</ele>
        <time>2012-09-10T18:31:55Z</time>
      </trkpt>
      <trkpt lat="59.9835519" lon="17.7379867">
        <ele>52.0486</ele>
        <time>2012-09-10T18:32:00Z</time>
      </trkpt>
      <trkpt lat="59.9837017" lon="17.737983">
        <ele>53.9712</ele>
        <time>2012-09-10T18:32:05Z</time>
      </trkpt>
      <trkpt lat="59.9837307" lon="17.7379874">
        <ele>53.9712</ele>
        <time>2012-09-10T18:32:06Z</time>
      </trkpt>
      <trkpt lat="59.9838825" lon="17.7379598">
        <ele>54.4518</ele>
        <time>2012-09-10T18:32:12Z</time>
      </trkpt>
      <trkpt lat="59.9839845" lon="17.7379453">
        <ele>53.9712</ele>
        <time>2012-09-10T18:32:16Z</time>
      </trkpt>
      <trkpt lat="59.9840476" lon="17.7379603">
        <ele>54.9324</ele>
        <time>2012-09-10T18:32:18Z</time>
      </trkpt>
      <trkpt lat="59.984184" lon="17.7379334">
        <ele>54.4518</ele>
        <time>2012-09-10T18:32:23Z</time>
      </trkpt>
      <trkpt lat="59.9842264" lon="17.7379536">
        <ele>51.5679</ele>
        <time>2012-09-10T18:32:25Z</time>
      </trkpt>
      <trkpt lat="59.984372" lon="17.7379691">
        <ele>49.1646</ele>
        <time>2012-09-10T18:32:31Z</time>
      </trkpt>
      <trkpt lat="59.984503" lon="17.7380022">
        <ele>46.7612</ele>
        <time>2012-09-10T18:32:37Z</time>
      </trkpt>
      <trkpt lat="59.9846175" lon="17.7380325">
        <ele>47.7225</ele>
        <time>2012-09-10T18:32:41Z</time>
      </trkpt>
      <trkpt lat="59.984786" lon="17.7380473">
        <ele>48.684</ele>
        <time>2012-09-10T18:32:47Z</time>
      </trkpt>
      <trkpt lat="59.984922" lon="17.7381276">
        <ele>47.2418</ele>
        <time>2012-09-10T18:32:52Z</time>
      </trkpt>
      <trkpt lat="59.9850507" lon="17.7381649">
        <ele>46.7612</ele>
        <time>2012-09-10T18:32:57Z</time>
      </trkpt>
      <trkpt lat="59.9851646" lon="17.7381852">
        <ele>46.2806</ele>
        <time>2012-09-10T18:33:02Z</time>
      </trkpt>
      <trkpt lat="59.9853616" lon="17.7382274">
        <ele>47.7225</ele>
        <time>2012-09-10T18:33:10Z</time>
      </trkpt>
      <trkpt lat="59.9853775" lon="17.7382359">
        <ele>47.2418</ele>
        <time>2012-09-10T18:33:11Z</time>
      </trkpt>
      <trkpt lat="59.985483" lon="17.738297">
        <ele>47.7225</ele>
        <time>2012-09-10T18:33:16Z</time>
      </trkpt>
      <trkpt lat="59.985608" lon="17.7383463">
        <ele>47.7225</ele>
        <time>2012-09-10T18:33:21Z</time>
      </trkpt>
      <trkpt lat="59.985751" lon="17.7384012">
        <ele>48.2034</ele>
        <time>2012-09-10T18:33:26Z</time>
      </trkpt>
      <trkpt lat="59.9858935" lon="17.73848">
        <ele>50.126</ele>
        <time>2012-09-10T18:33:31Z</time>
      </trkpt>
      <trkpt lat="59.9860125" lon="17.7385136">
        <ele>52.5292</ele>
        <time>2012-09-10T18:33:35Z</time>
      </trkpt>
      <trkpt lat="59.9861484" lon="17.7385782">
        <ele>53.0098</ele>
        <time>2012-09-10T18:33:40Z</time>
      </trkpt>
      <trkpt lat="59.9862519" lon="17.738685">
        <ele>51.0872</ele>
        <time>2012-09-10T18:33:45Z</time>
      </trkpt>
      <trkpt lat="59.9863628" lon="17.7387509">
        <ele>47.2418</ele>
        <time>2012-09-10T18:33:50Z</time>
      </trkpt>
      <trkpt lat="59.9863933" lon="17.7387571">
        <ele>47.7225</ele>
        <time>2012-09-10T18:33:51Z</time>
      </trkpt>
      <trkpt lat="59.9865" lon="17.7388577">
        <ele>47.2418</ele>
        <time>2012-09-10T18:33:56Z</time>
      </trkpt>
      <trkpt lat="59.9866262" lon="17.7389581">
        <ele>50.126</ele>
        <time>2012-09-10T18:34:01Z</time>
      </trkpt>
      <trkpt lat="59.9867022" lon="17.7390337">
        <ele>52.5292</ele>
        <time>2012-09-10T18:34:04Z</time>
      </trkpt>
      <trkpt lat="59.9868799" lon="17.7391642">
        <ele>55.8938</ele>
        <time>2012-09-10T18:34:11Z</time>
      </trkpt>
      <trkpt lat="59.9870138" lon="17.7392847">
        <ele>55.8938</ele>
        <time>2012-09-10T18:34:17Z</time>
      </trkpt>
      <trkpt lat="59.9871098" lon="17.7393624">
        <ele>56.8551</ele>
        <time>2012-09-10T18:34:22Z</time>
      </trkpt>
      <trkpt lat="59.9872266" lon="17.7393739">
        <ele>55.8938</ele>
        <time>2012-09-10T18:34:27Z</time>
      </trkpt>
      <trkpt lat="59.9873375" lon="17.7393427">
        <ele>56.3745</ele>
        <time>2012-09-10T18:34:32Z</time>
      </trkpt>
      <trkpt lat="59.9874434" lon="17.7393349">
        <ele>54.9324</ele>
        <time>2012-09-10T18:34:37Z</time>
      </trkpt>
      <trkpt lat="59.987576" lon="17.7392927">
        <ele>55.4131</ele>
        <time>2012-09-10T18:34:43Z</time>
      </trkpt>
      <trkpt lat="59.9877179" lon="17.7392458">
        <ele>54.9324</ele>
        <time>2012-09-10T18:34:48Z</time>
      </trkpt>
      <trkpt lat="59.9878436" lon="17.7392413">
        <ele>55.4131</ele>
        <time>2012-09-10T18:34:53Z</time>
      </trkpt>
      <trkpt lat="59.987992" lon="17.7392005">
        <ele>56.8551</ele>
        <time>2012-09-10T18:34:59Z</time>
      </trkpt>
      <trkpt lat="59.9880918" lon="17.7391762">
        <ele>54.9324</ele>
        <time>2012-09-10T18:35:04Z</time>
      </trkpt>
      <trkpt lat="59.9882091" lon="17.7391378">
        <ele>57.3358</ele>
        <time>2012-09-10T18:35:09Z</time>
      </trkpt>
      <trkpt lat="59.9883346" lon="17.7390987">
        <ele>56.3745</ele>
        <time>2012-09-10T18:35:14Z</time>
      </trkpt>
      <trkpt lat="59.9884384" lon="17.7390679">
        <ele>55.4131</ele>
        <time>2012-09-10T18:35:18Z</time>
      </trkpt>
      <trkpt lat="59.9885643" lon="17.7389819">
        <ele>57.3358</ele>
        <time>2012-09-10T18:35:24Z</time>
      </trkpt>
      <trkpt lat="59.988685" lon="17.7389099">
        <ele>57.8165</ele>
        <time>2012-09-10T18:35:29Z</time>
      </trkpt>
      <trkpt lat="59.9888371" lon="17.7388016">
        <ele>58.7777</ele>
        <time>2012-09-10T18:35:35Z</time>
      </trkpt>
      <trkpt lat="59.9889839" lon="17.7386804">
        <ele>60.7003</ele>
        <time>2012-09-10T18:35:41Z</time>
      </trkpt>
      <trkpt lat="59.989105" lon="17.7385942">
        <ele>62.1423</ele>
        <time>2012-09-10T18:35:46Z</time>
      </trkpt>
      <trkpt lat="59.9892578" lon="17.7384937">
        <ele>62.1423</ele>
        <time>2012-09-10T18:35:52Z</time>
      </trkpt>
      <trkpt lat="59.9893893" lon="17.7384489">
        <ele>62.6229</ele>
        <time>2012-09-10T18:35:57Z</time>
      </trkpt>
      <trkpt lat="59.9895521" lon="17.7384122">
        <ele>63.1036</ele>
        <time>2012-09-10T18:36:03Z</time>
      </trkpt>
      <trkpt lat="59.989681" lon="17.7383706">
        <ele>62.1423</ele>
        <time>2012-09-10T18:36:08Z</time>
      </trkpt>
      <trkpt lat="59.98977" lon="17.7383463">
        <ele>62.6229</ele>
        <time>2012-09-10T18:36:12Z</time>
      </trkpt>
      <trkpt lat="59.9899059" lon="17.738286">
        <ele>62.1423</ele>
        <time>2012-09-10T18:36:17Z</time>
      </trkpt>
      <trkpt lat="59.9900609" lon="17.738198">
        <ele>61.181</ele>
        <time>2012-09-10T18:36:23Z</time>
      </trkpt>
      <trkpt lat="59.9902041" lon="17.738134">
        <ele>61.181</ele>
        <time>2012-09-10T18:36:29Z</time>
      </trkpt>
      <trkpt lat="59.990357" lon="17.738068">
        <ele>59.7391</ele>
        <time>2012-09-10T18:36:35Z</time>
      </trkpt>
      <trkpt lat="59.9904779" lon="17.738018">
        <ele>59.7391</ele>
        <time>2012-09-10T18:36:41Z</time>
      </trkpt>
      <trkpt lat="59.9906462" lon="17.7379438">
        <ele>60.2197</ele>
        <time>2012-09-10T18:36:47Z</time>
      </trkpt>
      <trkpt lat="59.990741" lon="17.7378482">
        <ele>61.6617</ele>
        <time>2012-09-10T18:36:51Z</time>
      </trkpt>
      <trkpt lat="59.990885" lon="17.7377586">
        <ele>63.1036</ele>
        <time>2012-09-10T18:36:56Z</time>
      </trkpt>
      <trkpt lat="59.9910109" lon="17.7376918">
        <ele>64.5457</ele>
        <time>2012-09-10T18:37:01Z</time>
      </trkpt>
      <trkpt lat="59.9911176" lon="17.7376453">
        <ele>64.0651</ele>
        <time>2012-09-10T18:37:05Z</time>
      </trkpt>
      <trkpt lat="59.9912325" lon="17.7376013">
        <ele>63.5844</ele>
        <time>2012-09-10T18:37:09Z</time>
      </trkpt>
      <trkpt lat="59.9913327" lon="17.7375682">
        <ele>62.6229</ele>
        <time>2012-09-10T18:37:13Z</time>
      </trkpt>
      <trkpt lat="59.9915112" lon="17.7375468">
        <ele>62.1423</ele>
        <time>2012-09-10T18:37:19Z</time>
      </trkpt>
      <trkpt lat="59.9916532" lon="17.7375432">
        <ele>60.7003</ele>
        <time>2012-09-10T18:37:24Z</time>
      </trkpt>
      <trkpt lat="59.9917559" lon="17.7375711">
        <ele>58.2971</ele>
        <time>2012-09-10T18:37:28Z</time>
      </trkpt>
      <trkpt lat="59.9919148" lon="17.7375476">
        <ele>57.8165</ele>
        <time>2012-09-10T18:37:34Z</time>
      </trkpt>
      <trkpt lat="59.9920329" lon="17.7374776">
        <ele>56.8551</ele>
        <time>2012-09-10T18:37:39Z</time>
      </trkpt>
      <trkpt lat="59.9921831" lon="17.7374335">
        <ele>55.8938</ele>
        <time>2012-09-10T18:37:45Z</time>
      </trkpt>
      <trkpt lat="59.9922109" lon="17.7374304">
        <ele>56.3745</ele>
        <time>2012-09-10T18:37:46Z</time>
      </trkpt>
      <trkpt lat="59.9922575" lon="17.7374749">
        <ele>55.4131</ele>
        <time>2012-09-10T18:37:49Z</time>
      </trkpt>
      <trkpt lat="59.9921345" lon="17.7375424">
        <ele>48.2034</ele>
        <time>2012-09-10T18:37:54Z</time>
      </trkpt>
      <trkpt lat="59.9921034" lon="17.737574">
        <ele>46.7612</ele>
        <time>2012-09-10T18:37:55Z</time>
      </trkpt>
      <trkpt lat="59.9920174" lon="17.7375252">
        <ele>42.916</ele>
        <time>2012-09-10T18:37:59Z</time>
      </trkpt>
      <trkpt lat="59.9918779" lon="17.7375352">
        <ele>36.6675</ele>
        <time>2012-09-10T18:38:05Z</time>
      </trkpt>
      <trkpt lat="59.9918537" lon="17.7375404">
        <ele>35.2255</ele>
        <time>2012-09-10T18:38:06Z</time>
      </trkpt>
      <trkpt lat="59.9917195" lon="17.7375501">
        <ele>32.8223</ele>
        <time>2012-09-10T18:38:11Z</time>
      </trkpt>
      <trkpt lat="59.9916549" lon="17.7375336">
        <ele>28.9769</ele>
        <time>2012-09-10T18:38:14Z</time>
      </trkpt>
      <trkpt lat="59.9915235" lon="17.7374505">
        <ele>28.9769</ele>
        <time>2012-09-10T18:38:19Z</time>
      </trkpt>
      <trkpt lat="59.9914078" lon="17.7375169">
        <ele>25.6123</ele>
        <time>2012-09-10T18:38:23Z</time>
      </trkpt>
      <trkpt lat="59.9913243" lon="17.7374931">
        <ele>25.6123</ele>
        <time>2012-09-10T18:38:26Z</time>
      </trkpt>
      <trkpt lat="59.9912407" lon="17.7374879">
        <ele>23.209</ele>
        <time>2012-09-10T18:38:30Z</time>
      </trkpt>
      <trkpt lat="59.9911509" lon="17.7375081">
        <ele>19.8444</ele>
        <time>2012-09-10T18:38:34Z</time>
      </trkpt>
      <trkpt lat="59.9910684" lon="17.7376227">
        <ele>18.8831</ele>
        <time>2012-09-10T18:38:37Z</time>
      </trkpt>
      <trkpt lat="59.9909532" lon="17.7377291">
        <ele>19.8444</ele>
        <time>2012-09-10T18:38:42Z</time>
      </trkpt>
      <trkpt lat="59.9908648" lon="17.7377967">
        <ele>18.8831</ele>
        <time>2012-09-10T18:38:46Z</time>
      </trkpt>
      <trkpt lat="59.9908094" lon="17.7377887">
        <ele>20.325</ele>
        <time>2012-09-10T18:38:49Z</time>
      </trkpt>
      <trkpt lat="59.9907322" lon="17.7378561">
        <ele>19.8444</ele>
        <time>2012-09-10T18:38:52Z</time>
      </trkpt>
      <trkpt lat="59.9906616" lon="17.7378807">
        <ele>19.3638</ele>
        <time>2012-09-10T18:38:55Z</time>
      </trkpt>
      <trkpt lat="59.9905803" lon="17.7379386">
        <ele>19.8444</ele>
        <time>2012-09-10T18:38:58Z</time>
      </trkpt>
      <trkpt lat="59.9904571" lon="17.738036">
        <ele>20.8057</ele>
        <time>2012-09-10T18:39:03Z</time>
      </trkpt>
      <trkpt lat="59.9904339" lon="17.7380542">
        <ele>21.767</ele>
        <time>2012-09-10T18:39:04Z</time>
      </trkpt>
      <trkpt lat="59.9903202" lon="17.7381536">
        <ele>25.1317</ele>
        <time>2012-09-10T18:39:09Z</time>
      </trkpt>
      <trkpt lat="59.9902194" lon="17.7381889">
        <ele>28.0155</ele>
        <time>2012-09-10T18:39:13Z</time>
      </trkpt>
      <trkpt lat="59.9901493" lon="17.7381813">
        <ele>28.4962</ele>
        <time>2012-09-10T18:39:16Z</time>
      </trkpt>
      <trkpt lat="59.990075" lon="17.7381899">
        <ele>29.9381</ele>
        <time>2012-09-10T18:39:19Z</time>
      </trkpt>
      <trkpt lat="59.9899712" lon="17.738256">
        <ele>30.4188</ele>
        <time>2012-09-10T18:39:23Z</time>
      </trkpt>
      <trkpt lat="59.989864" lon="17.7383064">
        <ele>30.4188</ele>
        <time>2012-09-10T18:39:27Z</time>
      </trkpt>
      <trkpt lat="59.9898324" lon="17.7383349">
        <ele>30.4188</ele>
        <time>2012-09-10T18:39:28Z</time>
      </trkpt>
      <trkpt lat="59.9897174" lon="17.7383186">
        <ele>32.3416</ele>
        <time>2012-09-10T18:39:33Z</time>
      </trkpt>
      <trkpt lat="59.9895987" lon="17.7383741">
        <ele>30.4188</ele>
        <time>2012-09-10T18:39:38Z</time>
      </trkpt>
      <trkpt lat="59.9895107" lon="17.7384318">
        <ele>29.9381</ele>
        <time>2012-09-10T18:39:42Z</time>
      </trkpt>
      <trkpt lat="59.989474" lon="17.7384357">
        <ele>28.9769</ele>
        <time>2012-09-10T18:39:44Z</time>
      </trkpt>
      <trkpt lat="59.9893667" lon="17.7384846">
        <ele>28.9769</ele>
        <time>2012-09-10T18:39:49Z</time>
      </trkpt>
      <trkpt lat="59.9892966" lon="17.7385619">
        <ele>29.4575</ele>
        <time>2012-09-10T18:39:52Z</time>
      </trkpt>
      <trkpt lat="59.9892249" lon="17.7386271">
        <ele>30.8995</ele>
        <time>2012-09-10T18:39:55Z</time>
      </trkpt>
      <trkpt lat="59.9891372" lon="17.7386877">
        <ele>33.7834</ele>
        <time>2012-09-10T18:39:59Z</time>
      </trkpt>
      <trkpt lat="59.9891071" lon="17.7386969">
        <ele>35.2255</ele>
        <time>2012-09-10T18:40:01Z</time>
      </trkpt>
      <trkpt lat="59.9889762" lon="17.7388025">
        <ele>36.6675</ele>
        <time>2012-09-10T18:40:07Z</time>
      </trkpt>
      <trkpt lat="59.9889022" lon="17.7388672">
        <ele>38.1094</ele>
        <time>2012-09-10T18:40:10Z</time>
      </trkpt>
      <trkpt lat="59.9888402" lon="17.7388924">
        <ele>37.1481</ele>
        <time>2012-09-10T18:40:13Z</time>
      </trkpt>
      <trkpt lat="59.9887478" lon="17.7389368">
        <ele>36.6675</ele>
        <time>2012-09-10T18:40:17Z</time>
      </trkpt>
      <trkpt lat="59.9886877" lon="17.7389788">
        <ele>36.6675</ele>
        <time>2012-09-10T18:40:20Z</time>
      </trkpt>
      <trkpt lat="59.9886244" lon="17.7390818">
        <ele>36.1868</ele>
        <time>2012-09-10T18:40:23Z</time>
      </trkpt>
      <trkpt lat="59.9885352" lon="17.7391443">
        <ele>35.7061</ele>
        <time>2012-09-10T18:40:26Z</time>
      </trkpt>
      <trkpt lat="59.9884223" lon="17.7391694">
        <ele>36.6675</ele>
        <time>2012-09-10T18:40:30Z</time>
      </trkpt>
      <trkpt lat="59.9882766" lon="17.739241">
        <ele>36.1868</ele>
        <time>2012-09-10T18:40:35Z</time>
      </trkpt>
      <trkpt lat="59.9882067" lon="17.739245">
        <ele>34.2642</ele>
        <time>2012-09-10T18:40:38Z</time>
      </trkpt>
      <trkpt lat="59.9880609" lon="17.7392761">
        <ele>32.8223</ele>
        <time>2012-09-10T18:40:44Z</time>
      </trkpt>
      <trkpt lat="59.9880375" lon="17.7392718">
        <ele>33.3029</ele>
        <time>2012-09-10T18:40:45Z</time>
      </trkpt>
      <trkpt lat="59.9879074" lon="17.7393036">
        <ele>32.3416</ele>
        <time>2012-09-10T18:40:50Z</time>
      </trkpt>
      <trkpt lat="59.9878009" lon="17.7392721">
        <ele>33.3029</ele>
        <time>2012-09-10T18:40:54Z</time>
      </trkpt>
      <trkpt lat="59.987749" lon="17.7392777">
        <ele>32.8223</ele>
        <time>2012-09-10T18:40:56Z</time>
      </trkpt>
      <trkpt lat="59.9876532" lon="17.7392802">
        <ele>30.8995</ele>
        <time>2012-09-10T18:41:00Z</time>
      </trkpt>
      <trkpt lat="59.9875524" lon="17.7393164">
        <ele>30.4188</ele>
        <time>2012-09-10T18:41:04Z</time>
      </trkpt>
      <trkpt lat="59.9874039" lon="17.7393403">
        <ele>29.4575</ele>
        <time>2012-09-10T18:41:09Z</time>
      </trkpt>
      <trkpt lat="59.9873427" lon="17.7393792">
        <ele>28.9769</ele>
        <time>2012-09-10T18:41:11Z</time>
      </trkpt>
      <trkpt lat="59.9872149" lon="17.7393497">
        <ele>29.4575</ele>
        <time>2012-09-10T18:41:16Z</time>
      </trkpt>
      <trkpt lat="59.9871889" lon="17.7393498">
        <ele>28.9769</ele>
        <time>2012-09-10T18:41:17Z</time>
      </trkpt>
      <trkpt lat="59.9870634" lon="17.7393289">
        <ele>28.0155</ele>
        <time>2012-09-10T18:41:22Z</time>
      </trkpt>
      <trkpt lat="59.9870175" lon="17.7392941">
        <ele>27.5349</ele>
        <time>2012-09-10T18:41:24Z</time>
      </trkpt>
      <trkpt lat="59.9869321" lon="17.7392532">
        <ele>27.5349</ele>
        <time>2012-09-10T18:41:28Z</time>
      </trkpt>
      <trkpt lat="59.9867917" lon="17.7391042">
        <ele>28.0155</ele>
        <time>2012-09-10T18:41:35Z</time>
      </trkpt>
      <trkpt lat="59.9866692" lon="17.7390197">
        <ele>28.9769</ele>
        <time>2012-09-10T18:41:40Z</time>
      </trkpt>
      <trkpt lat="59.9866135" lon="17.738962">
        <ele>28.4962</ele>
        <time>2012-09-10T18:41:42Z</time>
      </trkpt>
      <trkpt lat="59.986516" lon="17.7388586">
        <ele>27.5349</ele>
        <time>2012-09-10T18:41:46Z</time>
      </trkpt>
      <trkpt lat="59.9864695" lon="17.7388093">
        <ele>27.0543</ele>
        <time>2012-09-10T18:41:48Z</time>
      </trkpt>
      <trkpt lat="59.9864068" lon="17.738753">
        <ele>28.4962</ele>
        <time>2012-09-10T18:41:51Z</time>
      </trkpt>
      <trkpt lat="59.9862502" lon="17.738668">
        <ele>33.7834</ele>
        <time>2012-09-10T18:41:57Z</time>
      </trkpt>
      <trkpt lat="59.9861184" lon="17.7386183">
        <ele>33.7834</ele>
        <time>2012-09-10T18:42:02Z</time>
      </trkpt>
      <trkpt lat="59.9860313" lon="17.7385062">
        <ele>32.3416</ele>
        <time>2012-09-10T18:42:06Z</time>
      </trkpt>
      <trkpt lat="59.9858984" lon="17.7384157">
        <ele>29.9381</ele>
        <time>2012-09-10T18:42:11Z</time>
      </trkpt>
      <trkpt lat="59.9857552" lon="17.7383749">
        <ele>28.9769</ele>
        <time>2012-09-10T18:42:16Z</time>
      </trkpt>
      <trkpt lat="59.9856467" lon="17.7383029">
        <ele>28.0155</ele>
        <time>2012-09-10T18:42:20Z</time>
      </trkpt>
      <trkpt lat="59.9855191" lon="17.7382393">
        <ele>25.1317</ele>
        <time>2012-09-10T18:42:25Z</time>
      </trkpt>
      <trkpt lat="59.9853935" lon="17.738177">
        <ele>24.651</ele>
        <time>2012-09-10T18:42:29Z</time>
      </trkpt>
      <trkpt lat="59.98526" lon="17.73813">
        <ele>21.767</ele>
        <time>2012-09-10T18:42:34Z</time>
      </trkpt>
      <trkpt lat="59.9851712" lon="17.7381664">
        <ele>24.1703</ele>
        <time>2012-09-10T18:42:37Z</time>
      </trkpt>
      <trkpt lat="59.9850257" lon="17.738082">
        <ele>22.7283</ele>
        <time>2012-09-10T18:42:43Z</time>
      </trkpt>
      <trkpt lat="59.9849324" lon="17.738035">
        <ele>22.2476</ele>
        <time>2012-09-10T18:42:47Z</time>
      </trkpt>
      <trkpt lat="59.984876" lon="17.7380324">
        <ele>22.7283</ele>
        <time>2012-09-10T18:42:49Z</time>
      </trkpt>
      <trkpt lat="59.9847453" lon="17.7380055">
        <ele>24.651</ele>
        <time>2012-09-10T18:42:54Z</time>
      </trkpt>
      <trkpt lat="59.9846289" lon="17.7379852">
        <ele>25.6123</ele>
        <time>2012-09-10T18:42:58Z</time>
      </trkpt>
      <trkpt lat="59.9844719" lon="17.73799">
        <ele>25.6123</ele>
        <time>2012-09-10T18:43:03Z</time>
      </trkpt>
      <trkpt lat="59.9843576" lon="17.7379278">
        <ele>24.651</ele>
        <time>2012-09-10T18:43:07Z</time>
      </trkpt>
      <trkpt lat="59.9842339" lon="17.737875">
        <ele>24.1703</ele>
        <time>2012-09-10T18:43:12Z</time>
      </trkpt>
      <trkpt lat="59.9841637" lon="17.7378739">
        <ele>23.209</ele>
        <time>2012-09-10T18:43:15Z</time>
      </trkpt>
      <trkpt lat="59.9839629" lon="17.7378697">
        <ele>22.2476</ele>
        <time>2012-09-10T18:43:22Z</time>
      </trkpt>
      <trkpt lat="59.9838994" lon="17.7378282">
        <ele>20.8057</ele>
        <time>2012-09-10T18:43:25Z</time>
      </trkpt>
      <trkpt lat="59.9837862" lon="17.7378712">
        <ele>19.3638</ele>
        <time>2012-09-10T18:43:30Z</time>
      </trkpt>
      <trkpt lat="59.9837142" lon="17.737911">
        <ele>17.4412</ele>
        <time>2012-09-10T18:43:33Z</time>
      </trkpt>
      <trkpt lat="59.9836092" lon="17.7379364">
        <ele>15.0377</ele>
        <time>2012-09-10T18:43:37Z</time>
      </trkpt>
      <trkpt lat="59.9835567" lon="17.737936">
        <ele>13.5958</ele>
        <time>2012-09-10T18:43:39Z</time>
      </trkpt>
      <trkpt lat="59.9834851" lon="17.7379458">
        <ele>12.6344</ele>
        <time>2012-09-10T18:43:42Z</time>
      </trkpt>
      <trkpt lat="59.9833597" lon="17.7379949">
        <ele>12.6344</ele>
        <time>2012-09-10T18:43:47Z</time>
      </trkpt>
      <trkpt lat="59.9833293" lon="17.7379992">
        <ele>13.1151</ele>
        <time>2012-09-10T18:43:48Z</time>
      </trkpt>
      <trkpt lat="59.9831651" lon="17.7380484">
        <ele>13.1151</ele>
        <time>2012-09-10T18:43:54Z</time>
      </trkpt>
      <trkpt lat="59.9830216" lon="17.7381148">
        <ele>20.325</ele>
        <time>2012-09-10T18:43:59Z</time>
      </trkpt>
      <trkpt lat="59.9829973" lon="17.7380883">
        <ele>21.2864</ele>
        <time>2012-09-10T18:44:00Z</time>
      </trkpt>
      <trkpt lat="59.9828491" lon="17.7380415">
        <ele>21.767</ele>
        <time>2012-09-10T18:44:06Z</time>
      </trkpt>
      <trkpt lat="59.9827025" lon="17.7380204">
        <ele>22.2476</ele>
        <time>2012-09-10T18:44:12Z</time>
      </trkpt>
      <trkpt lat="59.9825876" lon="17.7380131">
        <ele>22.2476</ele>
        <time>2012-09-10T18:44:16Z</time>
      </trkpt>
      <trkpt lat="59.9824842" lon="17.7380038">
        <ele>22.2476</ele>
        <time>2012-09-10T18:44:20Z</time>
      </trkpt>
      <trkpt lat="59.9823611" lon="17.7380358">
        <ele>21.2864</ele>
        <time>2012-09-10T18:44:24Z</time>
      </trkpt>
      <trkpt lat="59.9821693" lon="17.7381475">
        <ele>22.7283</ele>
        <time>2012-09-10T18:44:30Z</time>
      </trkpt>
      <trkpt lat="59.9820854" lon="17.738192">
        <ele>24.651</ele>
        <time>2012-09-10T18:44:33Z</time>
      </trkpt>
      <trkpt lat="59.9820172" lon="17.7382307">
        <ele>27.5349</ele>
        <time>2012-09-10T18:44:36Z</time>
      </trkpt>
      <trkpt lat="59.9819064" lon="17.7382858">
        <ele>30.4188</ele>
        <time>2012-09-10T18:44:40Z</time>
      </trkpt>
      <trkpt lat="59.9818868" lon="17.7382862">
        <ele>31.3801</ele>
        <time>2012-09-10T18:44:41Z</time>
      </trkpt>
      <trkpt lat="59.9817364" lon="17.7384136">
        <ele>39.0707</ele>
        <time>2012-09-10T18:44:47Z</time>
      </trkpt>
      <trkpt lat="59.9815607" lon="17.738471">
        <ele>44.8386</ele>
        <time>2012-09-10T18:44:53Z</time>
      </trkpt>
      <trkpt lat="59.9814399" lon="17.7385375">
        <ele>47.2418</ele>
        <time>2012-09-10T18:44:57Z</time>
      </trkpt>
      <trkpt lat="59.9813143" lon="17.7385909">
        <ele>49.6453</ele>
        <time>2012-09-10T18:45:01Z</time>
      </trkpt>
      <trkpt lat="59.9811623" lon="17.7387178">
        <ele>52.5292</ele>
        <time>2012-09-10T18:45:06Z</time>
      </trkpt>
      <trkpt lat="59.9810141" lon="17.738769">
        <ele>54.9324</ele>
        <time>2012-09-10T18:45:11Z</time>
      </trkpt>
      <trkpt lat="59.9809055" lon="17.7388187">
        <ele>55.4131</ele>
        <time>2012-09-10T18:45:15Z</time>
      </trkpt>
      <trkpt lat="59.9808107" lon="17.7388222">
        <ele>51.5679</ele>
        <time>2012-09-10T18:45:19Z</time>
      </trkpt>
      <trkpt lat="59.9807061" lon="17.7387511">
        <ele>47.2418</ele>
        <time>2012-09-10T18:45:24Z</time>
      </trkpt>
      <trkpt lat="59.980616" lon="17.7387571">
        <ele>48.2034</ele>
        <time>2012-09-10T18:45:27Z</time>
      </trkpt>
      <trkpt lat="59.9805194" lon="17.7387923">
        <ele>47.7225</ele>
        <time>2012-09-10T18:45:30Z</time>
      </trkpt>
      <trkpt lat="59.9803474" lon="17.7388782">
        <ele>49.1646</ele>
        <time>2012-09-10T18:45:36Z</time>
      </trkpt>
      <trkpt lat="59.9802202" lon="17.7388517">
        <ele>46.7612</ele>
        <time>2012-09-10T18:45:41Z</time>
      </trkpt>
      <trkpt lat="59.9800432" lon="17.7388353">
        <ele>43.8773</ele>
        <time>2012-09-10T18:45:47Z</time>
      </trkpt>
      <trkpt lat="59.979955" lon="17.7387466">
        <ele>40.0321</ele>
        <time>2012-09-10T18:45:51Z</time>
      </trkpt>
      <trkpt lat="59.979844" lon="17.7387648">
        <ele>38.1094</ele>
        <time>2012-09-10T18:45:55Z</time>
      </trkpt>
      <trkpt lat="59.9797636" lon="17.7387653">
        <ele>38.5901</ele>
        <time>2012-09-10T18:45:58Z</time>
      </trkpt>
      <trkpt lat="59.979683" lon="17.7388078">
        <ele>39.0707</ele>
        <time>2012-09-10T18:46:01Z</time>
      </trkpt>
      <trkpt lat="59.9795591" lon="17.7388487">
        <ele>39.0707</ele>
        <time>2012-09-10T18:46:06Z</time>
      </trkpt>
      <trkpt lat="59.9794064" lon="17.7389421">
        <ele>37.1481</ele>
        <time>2012-09-10T18:46:12Z</time>
      </trkpt>
      <trkpt lat="59.9792867" lon="17.7390519">
        <ele>36.1868</ele>
        <time>2012-09-10T18:46:16Z</time>
      </trkpt>
      <trkpt lat="59.9791192" lon="17.739173">
        <ele>33.7834</ele>
        <time>2012-09-10T18:46:22Z</time>
      </trkpt>
      <trkpt lat="59.9789811" lon="17.7392833">
        <ele>32.3416</ele>
        <time>2012-09-10T18:46:26Z</time>
      </trkpt>
      <trkpt lat="59.9788827" lon="17.7393407">
        <ele>31.3801</ele>
        <time>2012-09-10T18:46:29Z</time>
      </trkpt>
      <trkpt lat="59.9788634" lon="17.7393383">
        <ele>30.4188</ele>
        <time>2012-09-10T18:46:30Z</time>
      </trkpt>
      <trkpt lat="59.9787563" lon="17.7393998">
        <ele>30.4188</ele>
        <time>2012-09-10T18:46:34Z</time>
      </trkpt>
      <trkpt lat="59.9786361" lon="17.7394248">
        <ele>29.9381</ele>
        <time>2012-09-10T18:46:38Z</time>
      </trkpt>
      <trkpt lat="59.9785232" lon="17.7393947">
        <ele>30.4188</ele>
        <time>2012-09-10T18:46:42Z</time>
      </trkpt>
      <trkpt lat="59.978344" lon="17.7393315">
        <ele>29.9381</ele>
        <time>2012-09-10T18:46:49Z</time>
      </trkpt>
      <trkpt lat="59.9781745" lon="17.7393011">
        <ele>33.3029</ele>
        <time>2012-09-10T18:46:55Z</time>
      </trkpt>
      <trkpt lat="59.9781534" lon="17.7392819">
        <ele>33.7834</ele>
        <time>2012-09-10T18:46:56Z</time>
      </trkpt>
      <trkpt lat="59.9780119" lon="17.7392383">
        <ele>36.1868</ele>
        <time>2012-09-10T18:47:02Z</time>
      </trkpt>
      <trkpt lat="59.9779499" lon="17.7392049">
        <ele>36.1868</ele>
        <time>2012-09-10T18:47:05Z</time>
      </trkpt>
      <trkpt lat="59.9778532" lon="17.7390961">
        <ele>33.7834</ele>
        <time>2012-09-10T18:47:10Z</time>
      </trkpt>
      <trkpt lat="59.977738" lon="17.7390611">
        <ele>32.3416</ele>
        <time>2012-09-10T18:47:15Z</time>
      </trkpt>
      <trkpt lat="59.977672" lon="17.7390088">
        <ele>31.8607</ele>
        <time>2012-09-10T18:47:18Z</time>
      </trkpt>
      <trkpt lat="59.9776246" lon="17.7389797">
        <ele>31.8607</ele>
        <time>2012-09-10T18:47:20Z</time>
      </trkpt>
      <trkpt lat="59.9775172" lon="17.7389897">
        <ele>31.8607</ele>
        <time>2012-09-10T18:47:24Z</time>
      </trkpt>
      <trkpt lat="59.9773867" lon="17.7390523">
        <ele>31.8607</ele>
        <time>2012-09-10T18:47:29Z</time>
      </trkpt>
      <trkpt lat="59.977344" lon="17.7390338">
        <ele>31.8607</ele>
        <time>2012-09-10T18:47:31Z</time>
      </trkpt>
      <trkpt lat="59.977186" lon="17.7391495">
        <ele>32.3416</ele>
        <time>2012-09-10T18:47:37Z</time>
      </trkpt>
      <trkpt lat="59.9771111" lon="17.7392036">
        <ele>31.3801</ele>
        <time>2012-09-10T18:47:40Z</time>
      </trkpt>
      <trkpt lat="59.977036" lon="17.739276">
        <ele>31.8607</ele>
        <time>2012-09-10T18:47:43Z</time>
      </trkpt>
      <trkpt lat="59.9769232" lon="17.7393113">
        <ele>33.3029</ele>
        <time>2012-09-10T18:47:48Z</time>
      </trkpt>
      <trkpt lat="59.9767925" lon="17.7393377">
        <ele>34.2642</ele>
        <time>2012-09-10T18:47:53Z</time>
      </trkpt>
      <trkpt lat="59.9767507" lon="17.7393491">
        <ele>32.8223</ele>
        <time>2012-09-10T18:47:55Z</time>
      </trkpt>
      <trkpt lat="59.9766927" lon="17.7393967">
        <ele>33.7834</ele>
        <time>2012-09-10T18:47:57Z</time>
      </trkpt>
      <trkpt lat="59.9765927" lon="17.7394476">
        <ele>33.3029</ele>
        <time>2012-09-10T18:48:01Z</time>
      </trkpt>
      <trkpt lat="59.9764986" lon="17.7395258">
        <ele>32.3416</ele>
        <time>2012-09-10T18:48:05Z</time>
      </trkpt>
      <trkpt lat="59.9763448" lon="17.7396677">
        <ele>33.3029</ele>
        <time>2012-09-10T18:48:11Z</time>
      </trkpt>
      <trkpt lat="59.9762397" lon="17.7396937">
        <ele>32.8223</ele>
        <time>2012-09-10T18:48:15Z</time>
      </trkpt>
      <trkpt lat="59.9761625" lon="17.7396278">
        <ele>32.8223</ele>
        <time>2012-09-10T18:48:18Z</time>
      </trkpt>
      <trkpt lat="59.9761086" lon="17.7396045">
        <ele>32.3416</ele>
        <time>2012-09-10T18:48:20Z</time>
      </trkpt>
      <trkpt lat="59.9759964" lon="17.739472">
        <ele>30.8995</ele>
        <time>2012-09-10T18:48:25Z</time>
      </trkpt>
      <trkpt lat="59.9759176" lon="17.7393301">
        <ele>29.9381</ele>
        <time>2012-09-10T18:48:29Z</time>
      </trkpt>
      <trkpt lat="59.9758063" lon="17.7391417">
        <ele>28.0155</ele>
        <time>2012-09-10T18:48:35Z</time>
      </trkpt>
      <trkpt lat="59.975787" lon="17.739106">
        <ele>28.4962</ele>
        <time>2012-09-10T18:48:36Z</time>
      </trkpt>
      <trkpt lat="59.9757027" lon="17.7389511">
        <ele>28.0155</ele>
        <time>2012-09-10T18:48:40Z</time>
      </trkpt>
      <trkpt lat="59.9756805" lon="17.7389156">
        <ele>27.5349</ele>
        <time>2012-09-10T18:48:41Z</time>
      </trkpt>
      <trkpt lat="59.975566" lon="17.7387824">
        <ele>25.6123</ele>
        <time>2012-09-10T18:48:46Z</time>
      </trkpt>
      <trkpt lat="59.9755296" lon="17.7386936">
        <ele>26.0929</ele>
        <time>2012-09-10T18:48:48Z</time>
      </trkpt>
      <trkpt lat="59.9754196" lon="17.7384631">
        <ele>26.0929</ele>
        <time>2012-09-10T18:48:53Z</time>
      </trkpt>
      <trkpt lat="59.9753478" lon="17.7383065">
        <ele>25.6123</ele>
        <time>2012-09-10T18:48:57Z</time>
      </trkpt>
      <trkpt lat="59.9752503" lon="17.7381397">
        <ele>25.6123</ele>
        <time>2012-09-10T18:49:02Z</time>
      </trkpt>
      <trkpt lat="59.9751653" lon="17.7380053">
        <ele>27.0543</ele>
        <time>2012-09-10T18:49:06Z</time>
      </trkpt>
      <trkpt lat="59.9750624" lon="17.737834">
        <ele>27.5349</ele>
        <time>2012-09-10T18:49:11Z</time>
      </trkpt>
      <trkpt lat="59.9749738" lon="17.7376654">
        <ele>28.0155</ele>
        <time>2012-09-10T18:49:16Z</time>
      </trkpt>
      <trkpt lat="59.9748878" lon="17.7375262">
        <ele>28.0155</ele>
        <time>2012-09-10T18:49:20Z</time>
      </trkpt>
      <trkpt lat="59.9747937" lon="17.7373595">
        <ele>27.5349</ele>
        <time>2012-09-10T18:49:25Z</time>
      </trkpt>
      <trkpt lat="59.9747193" lon="17.7371842">
        <ele>27.5349</ele>
        <time>2012-09-10T18:49:30Z</time>
      </trkpt>
      <trkpt lat="59.9746635" lon="17.7370108">
        <ele>28.0155</ele>
        <time>2012-09-10T18:49:34Z</time>
      </trkpt>
      <trkpt lat="59.97456" lon="17.7367135">
        <ele>28.0155</ele>
        <time>2012-09-10T18:49:41Z</time>
      </trkpt>
      <trkpt lat="59.9745178" lon="17.7365737">
        <ele>27.0543</ele>
        <time>2012-09-10T18:49:44Z</time>
      </trkpt>
      <trkpt lat="59.9744687" lon="17.7363819">
        <ele>27.0543</ele>
        <time>2012-09-10T18:49:48Z</time>
      </trkpt>
      <trkpt lat="59.9744045" lon="17.7361419">
        <ele>26.5736</ele>
        <time>2012-09-10T18:49:53Z</time>
      </trkpt>
      <trkpt lat="59.974358" lon="17.7359132">
        <ele>27.0543</ele>
        <time>2012-09-10T18:49:58Z</time>
      </trkpt>
      <trkpt lat="59.9743188" lon="17.7356474">
        <ele>27.5349</ele>
        <time>2012-09-10T18:50:04Z</time>
      </trkpt>
      <trkpt lat="59.974292" lon="17.7354246">
        <ele>27.5349</ele>
        <time>2012-09-10T18:50:09Z</time>
      </trkpt>
      <trkpt lat="59.9742616" lon="17.735137">
        <ele>28.0155</ele>
        <time>2012-09-10T18:50:15Z</time>
      </trkpt>
      <trkpt lat="59.974252" lon="17.7349407">
        <ele>28.4962</ele>
        <time>2012-09-10T18:50:19Z</time>
      </trkpt>
      <trkpt lat="59.9742389" lon="17.7346839">
        <ele>28.4962</ele>
        <time>2012-09-10T18:50:24Z</time>
      </trkpt>
      <trkpt lat="59.9742341" lon="17.7343809">
        <ele>28.4962</ele>
        <time>2012-09-10T18:50:30Z</time>
      </trkpt>
      <trkpt lat="59.9742528" lon="17.734086">
        <ele>28.9769</ele>
        <time>2012-09-10T18:50:36Z</time>
      </trkpt>
      <trkpt lat="59.9742674" lon="17.7338323">
        <ele>29.4575</ele>
        <time>2012-09-10T18:50:41Z</time>
      </trkpt>
      <trkpt lat="59.9742896" lon="17.7335306">
        <ele>29.9381</ele>
        <time>2012-09-10T18:50:47Z</time>
      </trkpt>
      <trkpt lat="59.9743018" lon="17.7332153">
        <ele>30.8995</ele>
        <time>2012-09-10T18:50:53Z</time>
      </trkpt>
      <trkpt lat="59.9743071" lon="17.7329585">
        <ele>30.8995</ele>
        <time>2012-09-10T18:50:58Z</time>
      </trkpt>
      <trkpt lat="59.974304" lon="17.7327014">
        <ele>31.3801</ele>
        <time>2012-09-10T18:51:03Z</time>
      </trkpt>
      <trkpt lat="59.9743023" lon="17.7324415">
        <ele>31.3801</ele>
        <time>2012-09-10T18:51:08Z</time>
      </trkpt>
      <trkpt lat="59.9742917" lon="17.7322151">
        <ele>30.4188</ele>
        <time>2012-09-10T18:51:12Z</time>
      </trkpt>
      <trkpt lat="59.974292" lon="17.7319499">
        <ele>27.5349</ele>
        <time>2012-09-10T18:51:17Z</time>
      </trkpt>
      <trkpt lat="59.9742854" lon="17.7317457">
        <ele>26.5736</ele>
        <time>2012-09-10T18:51:21Z</time>
      </trkpt>
      <trkpt lat="59.9742833" lon="17.7313592">
        <ele>26.0929</ele>
        <time>2012-09-10T18:51:28Z</time>
      </trkpt>
      <trkpt lat="59.9742895" lon="17.7310968">
        <ele>27.0543</ele>
        <time>2012-09-10T18:51:33Z</time>
      </trkpt>
      <trkpt lat="59.9743118" lon="17.7307651">
        <ele>27.5349</ele>
        <time>2012-09-10T18:51:39Z</time>
      </trkpt>
      <trkpt lat="59.9743356" lon="17.7305135">
        <ele>28.4962</ele>
        <time>2012-09-10T18:51:44Z</time>
      </trkpt>
      <trkpt lat="59.9743562" lon="17.7303461">
        <ele>28.9769</ele>
        <time>2012-09-10T18:51:47Z</time>
      </trkpt>
      <trkpt lat="59.9743811" lon="17.7300336">
        <ele>29.4575</ele>
        <time>2012-09-10T18:51:53Z</time>
      </trkpt>
      <trkpt lat="59.9743965" lon="17.7297762">
        <ele>29.4575</ele>
        <time>2012-09-10T18:51:58Z</time>
      </trkpt>
      <trkpt lat="59.9744138" lon="17.7294744">
        <ele>28.4962</ele>
        <time>2012-09-10T18:52:04Z</time>
      </trkpt>
      <trkpt lat="59.9744241" lon="17.7292548">
        <ele>28.0155</ele>
        <time>2012-09-10T18:52:08Z</time>
      </trkpt>
      <trkpt lat="59.9744268" lon="17.7290515">
        <ele>28.4962</ele>
        <time>2012-09-10T18:52:12Z</time>
      </trkpt>
      <trkpt lat="59.9744193" lon="17.7288054">
        <ele>28.0155</ele>
        <time>2012-09-10T18:52:17Z</time>
      </trkpt>
      <trkpt lat="59.9744185" lon="17.7287646">
        <ele>28.0155</ele>
        <time>2012-09-10T18:52:18Z</time>
      </trkpt>
      <trkpt lat="59.974474" lon="17.7288694">
        <ele>25.6123</ele>
        <time>2012-09-10T18:52:22Z</time>
      </trkpt>
      <trkpt lat="59.97448" lon="17.7293187">
        <ele>23.209</ele>
        <time>2012-09-10T18:52:30Z</time>
      </trkpt>
      <trkpt lat="59.9744688" lon="17.7296177">
        <ele>23.6896</ele>
        <time>2012-09-10T18:52:36Z</time>
      </trkpt>
      <trkpt lat="59.9744516" lon="17.7298598">
        <ele>23.6896</ele>
        <time>2012-09-10T18:52:41Z</time>
      </trkpt>
      <trkpt lat="59.9744299" lon="17.730166">
        <ele>23.6896</ele>
        <time>2012-09-10T18:52:47Z</time>
      </trkpt>
      <trkpt lat="59.9743966" lon="17.7305084">
        <ele>23.6896</ele>
        <time>2012-09-10T18:52:54Z</time>
      </trkpt>
      <trkpt lat="59.974376" lon="17.7308106">
        <ele>24.1703</ele>
        <time>2012-09-10T18:53:00Z</time>
      </trkpt>
      <trkpt lat="59.9743588" lon="17.7311162">
        <ele>24.651</ele>
        <time>2012-09-10T18:53:06Z</time>
      </trkpt>
      <trkpt lat="59.9743527" lon="17.7313631">
        <ele>25.1317</ele>
        <time>2012-09-10T18:53:11Z</time>
      </trkpt>
      <trkpt lat="59.9743456" lon="17.7316225">
        <ele>26.0929</ele>
        <time>2012-09-10T18:53:16Z</time>
      </trkpt>
      <trkpt lat="59.9743409" lon="17.7318882">
        <ele>25.6123</ele>
        <time>2012-09-10T18:53:21Z</time>
      </trkpt>
      <trkpt lat="59.9743506" lon="17.7320975">
        <ele>25.6123</ele>
        <time>2012-09-10T18:53:25Z</time>
      </trkpt>
      <trkpt lat="59.9743476" lon="17.7323938">
        <ele>25.6123</ele>
        <time>2012-09-10T18:53:31Z</time>
      </trkpt>
      <trkpt lat="59.9743636" lon="17.7327052">
        <ele>26.0929</ele>
        <time>2012-09-10T18:53:37Z</time>
      </trkpt>
      <trkpt lat="59.9743657" lon="17.7330104">
        <ele>27.0543</ele>
        <time>2012-09-10T18:53:43Z</time>
      </trkpt>
      <trkpt lat="59.9743651" lon="17.7332818">
        <ele>28.0155</ele>
        <time>2012-09-10T18:53:48Z</time>
      </trkpt>
      <trkpt lat="59.9743516" lon="17.7335618">
        <ele>28.0155</ele>
        <time>2012-09-10T18:53:53Z</time>
      </trkpt>
      <trkpt lat="59.9743363" lon="17.7338525">
        <ele>28.0155</ele>
        <time>2012-09-10T18:53:58Z</time>
      </trkpt>
      <trkpt lat="59.9743217" lon="17.7340947">
        <ele>28.0155</ele>
        <time>2012-09-10T18:54:03Z</time>
      </trkpt>
      <trkpt lat="59.9743144" lon="17.73434">
        <ele>28.4962</ele>
        <time>2012-09-10T18:54:08Z</time>
      </trkpt>
      <trkpt lat="59.9743086" lon="17.734548">
        <ele>28.9769</ele>
        <time>2012-09-10T18:54:12Z</time>
      </trkpt>
      <trkpt lat="59.9743075" lon="17.734855">
        <ele>28.4962</ele>
        <time>2012-09-10T18:54:18Z</time>
      </trkpt>
      <trkpt lat="59.9743362" lon="17.7350888">
        <ele>28.9769</ele>
        <time>2012-09-10T18:54:23Z</time>
      </trkpt>
      <trkpt lat="59.9743631" lon="17.7353346">
        <ele>29.4575</ele>
        <time>2012-09-10T18:54:28Z</time>
      </trkpt>
      <trkpt lat="59.9744003" lon="17.7356008">
        <ele>30.4188</ele>
        <time>2012-09-10T18:54:34Z</time>
      </trkpt>
      <trkpt lat="59.9744518" lon="17.7358431">
        <ele>31.3801</ele>
        <time>2012-09-10T18:54:40Z</time>
      </trkpt>
      <trkpt lat="59.9745024" lon="17.7360718">
        <ele>31.3801</ele>
        <time>2012-09-10T18:54:45Z</time>
      </trkpt>
      <trkpt lat="59.9745663" lon="17.7363326">
        <ele>30.8995</ele>
        <time>2012-09-10T18:54:51Z</time>
      </trkpt>
      <trkpt lat="59.974634" lon="17.736585">
        <ele>32.8223</ele>
        <time>2012-09-10T18:54:57Z</time>
      </trkpt>
      <trkpt lat="59.9746849" lon="17.7367503">
        <ele>33.3029</ele>
        <time>2012-09-10T18:55:01Z</time>
      </trkpt>
      <trkpt lat="59.9747657" lon="17.7369949">
        <ele>33.7834</ele>
        <time>2012-09-10T18:55:07Z</time>
      </trkpt>
      <trkpt lat="59.9748417" lon="17.737191">
        <ele>33.3029</ele>
        <time>2012-09-10T18:55:12Z</time>
      </trkpt>
      <trkpt lat="59.9749205" lon="17.737395">
        <ele>33.3029</ele>
        <time>2012-09-10T18:55:17Z</time>
      </trkpt>
      <trkpt lat="59.9750027" lon="17.7375896">
        <ele>30.8995</ele>
        <time>2012-09-10T18:55:22Z</time>
      </trkpt>
      <trkpt lat="59.9750981" lon="17.7378146">
        <ele>29.9381</ele>
        <time>2012-09-10T18:55:28Z</time>
      </trkpt>
      <trkpt lat="59.9751822" lon="17.7379872">
        <ele>28.4962</ele>
        <time>2012-09-10T18:55:33Z</time>
      </trkpt>
      <trkpt lat="59.9752777" lon="17.7381529">
        <ele>25.6123</ele>
        <time>2012-09-10T18:55:38Z</time>
      </trkpt>
      <trkpt lat="59.9753561" lon="17.7382929">
        <ele>25.1317</ele>
        <time>2012-09-10T18:55:42Z</time>
      </trkpt>
      <trkpt lat="59.9754626" lon="17.7384872">
        <ele>25.6123</ele>
        <time>2012-09-10T18:55:48Z</time>
      </trkpt>
      <trkpt lat="59.9755586" lon="17.7386628">
        <ele>25.6123</ele>
        <time>2012-09-10T18:55:53Z</time>
      </trkpt>
      <trkpt lat="59.975668" lon="17.738857">
        <ele>25.1317</ele>
        <time>2012-09-10T18:55:59Z</time>
      </trkpt>
      <trkpt lat="59.9757638" lon="17.7390231">
        <ele>24.651</ele>
        <time>2012-09-10T18:56:04Z</time>
      </trkpt>
      <trkpt lat="59.9759037" lon="17.739207">
        <ele>24.1703</ele>
        <time>2012-09-10T18:56:10Z</time>
      </trkpt>
      <trkpt lat="59.9759819" lon="17.7393516">
        <ele>23.209</ele>
        <time>2012-09-10T18:56:14Z</time>
      </trkpt>
      <trkpt lat="59.9760206" lon="17.7394693">
        <ele>21.767</ele>
        <time>2012-09-10T18:56:17Z</time>
      </trkpt>
      <trkpt lat="59.9761337" lon="17.7396502">
        <ele>21.2864</ele>
        <time>2012-09-10T18:56:23Z</time>
      </trkpt>
      <trkpt lat="59.9762237" lon="17.7397786">
        <ele>20.8057</ele>
        <time>2012-09-10T18:56:28Z</time>
      </trkpt>
      <trkpt lat="59.9763413" lon="17.7397776">
        <ele>21.767</ele>
        <time>2012-09-10T18:56:33Z</time>
      </trkpt>
      <trkpt lat="59.9764347" lon="17.739663">
        <ele>24.651</ele>
        <time>2012-09-10T18:56:37Z</time>
      </trkpt>
      <trkpt lat="59.9765497" lon="17.7395634">
        <ele>26.5736</ele>
        <time>2012-09-10T18:56:42Z</time>
      </trkpt>
      <trkpt lat="59.9766609" lon="17.7394812">
        <ele>27.0543</ele>
        <time>2012-09-10T18:56:47Z</time>
      </trkpt>
      <trkpt lat="59.9767501" lon="17.7394093">
        <ele>28.0155</ele>
        <time>2012-09-10T18:56:51Z</time>
      </trkpt>
      <trkpt lat="59.9768646" lon="17.739349">
        <ele>28.0155</ele>
        <time>2012-09-10T18:56:56Z</time>
      </trkpt>
      <trkpt lat="59.9769685" lon="17.7393362">
        <ele>28.0155</ele>
        <time>2012-09-10T18:57:00Z</time>
      </trkpt>
      <trkpt lat="59.977081" lon="17.7392812">
        <ele>27.5349</ele>
        <time>2012-09-10T18:57:05Z</time>
      </trkpt>
      <trkpt lat="59.9772421" lon="17.7391761">
        <ele>29.4575</ele>
        <time>2012-09-10T18:57:12Z</time>
      </trkpt>
      <trkpt lat="59.9773756" lon="17.7390793">
        <ele>31.3801</ele>
        <time>2012-09-10T18:57:18Z</time>
      </trkpt>
      <trkpt lat="59.9774746" lon="17.7389817">
        <ele>31.8607</ele>
        <time>2012-09-10T18:57:23Z</time>
      </trkpt>
      <trkpt lat="59.9775927" lon="17.7389322">
        <ele>31.8607</ele>
        <time>2012-09-10T18:57:28Z</time>
      </trkpt>
      <trkpt lat="59.9776732" lon="17.7389493">
        <ele>31.8607</ele>
        <time>2012-09-10T18:57:32Z</time>
      </trkpt>
      <trkpt lat="59.97776" lon="17.7389737">
        <ele>30.4188</ele>
        <time>2012-09-10T18:57:36Z</time>
      </trkpt>
      <trkpt lat="59.977886" lon="17.7390528">
        <ele>29.9381</ele>
        <time>2012-09-10T18:57:42Z</time>
      </trkpt>
      <trkpt lat="59.9780178" lon="17.7391492">
        <ele>27.5349</ele>
        <time>2012-09-10T18:57:48Z</time>
      </trkpt>
      <trkpt lat="59.9781104" lon="17.7391901">
        <ele>26.5736</ele>
        <time>2012-09-10T18:57:52Z</time>
      </trkpt>
      <trkpt lat="59.9781969" lon="17.7392262">
        <ele>25.1317</ele>
        <time>2012-09-10T18:57:56Z</time>
      </trkpt>
      <trkpt lat="59.9783274" lon="17.7392486">
        <ele>25.1317</ele>
        <time>2012-09-10T18:58:01Z</time>
      </trkpt>
      <trkpt lat="59.9784361" lon="17.7392621">
        <ele>25.6123</ele>
        <time>2012-09-10T18:58:05Z</time>
      </trkpt>
      <trkpt lat="59.9785351" lon="17.7393082">
        <ele>26.0929</ele>
        <time>2012-09-10T18:58:09Z</time>
      </trkpt>
      <trkpt lat="59.9786365" lon="17.7393634">
        <ele>26.5736</ele>
        <time>2012-09-10T18:58:13Z</time>
      </trkpt>
      <trkpt lat="59.9787538" lon="17.7393724">
        <ele>28.4962</ele>
        <time>2012-09-10T18:58:17Z</time>
      </trkpt>
      <trkpt lat="59.9788914" lon="17.7395109">
        <ele>28.9769</ele>
        <time>2012-09-10T18:58:22Z</time>
      </trkpt>
      <trkpt lat="59.9789029" lon="17.7395407">
        <ele>28.9769</ele>
        <time>2012-09-10T18:58:23Z</time>
      </trkpt>
      <trkpt lat="59.9788657" lon="17.7396803">
        <ele>26.0929</ele>
        <time>2012-09-10T18:58:27Z</time>
      </trkpt>
      <trkpt lat="59.9788313" lon="17.7399051">
        <ele>28.0155</ele>
        <time>2012-09-10T18:58:32Z</time>
      </trkpt>
    </trkseg>
  </trk>
</gpx>